Roros Lufthavn, Norway

7:03 PM CEST on July 30, 2016 (GMT +0200)
Roros | | Change Station

Elev 2054 ft 62.58 °N, 11.34 °E | Updated 13 minutes ago

Overcast
Overcast
54 °F
Feels Like 54 °F
N
9
Wind Variable Wind from North

Today
High -- | Low -- °F
--% Chance of Precip.
Yesterday
High -- | Low -- °F
Precip. -- in
Pressure 29.62 in
Visibility 6.2 miles
Clouds Mostly Cloudy 2100 ft
Overcast 3000 ft
Dew Point 50 °F
Humidity 88%
Rainfall 0.00 in
Snow Depth Not available.
4:31 AM 10:08 PM
Waning Crescent, 12% visible
METAR ENRO 301650Z AUTO 01008KT 9999NDV BKN021/// OVC030/// 12/10 Q1003
Pressure 29.62 in
Visibility 6.2 miles
Clouds Mostly Cloudy 2100 ft
Overcast 3000 ft
Dew Point 50 °F
Humidity 88%
Rainfall 0.00 in
Snow Depth Not available.
4:31 AM 10:08 PM
Waning Crescent, 12% visible
METAR ENRO 301650Z AUTO 01008KT 9999NDV BKN021/// OVC030/// 12/10 Q1003

10-Day Weather Forecast

×

Almanac

Astronomy

Jul. 30, 2016 Rise Set
Actual Time
Civil Twilight
Nautical Twilight
Astronomical Twilight
Moon
Length of Visible Light
Length of Day
Tomorrow will be .
, % of the Moon is Illuminated

Today's Extremes

Country Highs Country Lows

Community

WunderPhotos

Upload Photos

1,928,598 photos uploaded!

WunderBlog® & News

Nearby

Air Quality

  Air Quality AQ Index Pollutant
Not available.

Snow Depth

Station Depth Elevation

Earthquake Activity

City Distance Mag. Time & Date
Minimum magnitude displayed is 2.5.

Coastal Water Temperatures

Place Temperature

Stations

Nearby Weather Stations

Station Location Temp. Windchill Dew Point Humidity Wind Precip. Elev Updated Type